マイアミ の空港の天気 - METARとTAF

マイアミ国際空港 ( KMIA / MIA ) - アメリカ合衆国 フロリダ州マイアミ
飛行場実況気象(Metar)
観測時間03/26 02:53 EDT (03/26 06:53 UTC)
風向・風速東北東 6m/s 瞬間風速9m/s
視程6450m
天気現象
全天の8割程度の雲 雲底高度 700m
全天の8割程度の雲 雲底高度 1070m
全天を覆う雲 雲底高度 1680m
気温21.1℃
湿度84%
気圧1018.6hPa
METARKMIA 260653Z 07012G18KT 4SM RA BKN023 BKN035 OVC055 21/18 A3008 RMK AO2 RAB11E24B42 SLP186 P0008 T02110183 $
過去の天気等 Google飛行場航空写真 Wunderground天気予報

過去48時間のMETAR

飛行場予報(TAF)
発表時間: 3/26 01:24 EDT (3/26 05:24 UTC)
予報対象時間: 26日2時 EDT ~ 27日2時 EDT
風向・風速東 5m/s
視程10km以上
天気現象周辺でしゅう雨
少しの雲 雲底高度 760m
全天の4割程度の雲 雲底高度 1,520m
全天の4割程度の雲 雲底高度 6,100m
26日2時 EDT ~ 26日5時 EDT に一時的に
視程10km以上
天気現象弱いしゅう雨
全天の8割程度の雲 雲底高度 760m
26日10時 EDT から
風向・風速東 6m/s
視程10km以上
全天の4割程度の雲 雲底高度 760m
全天の8割程度の雲 雲底高度 1,520m
全天の8割程度の雲 雲底高度 7,620m
26日22時 EDT から
風向・風速東 4m/s
視程10km以上
全天の4割程度の雲 雲底高度 910m
全天の4割程度の雲 雲底高度 7,620m
KMIA 260524Z 2606/2706 09010KT P6SM VCSH FEW025 SCT050 SCT200
TEMPO 2606/2609 6SM -SHRA BKN025
FM261400 09012KT P6SM SCT025 BKN050 BKN250
FM270200 08007KT P6SM SCT030 SCT250